JAI27A VOMM-VOBL
Flight info
| Callsign | JAI27A |
|---|---|
| Flight time | N/A |
| Altitude | 20000 |
| Route | MMV W117 BIA |
| Aircraft | B738/M-SDE2E3FGHIRWXY/LB1 |
Departure
| Time | 2026-05-06 17:31 |
|---|---|
| Airport | Chennai International Airport (VOMM) |
Arrival
| Time | N/A |
|---|---|
| Airport | Kempegowda International Airport Bengaluru (VOBL) |
| Time | Latitude | Longitude | Altitude | Speed | Heading |
|---|---|---|---|---|---|
| 2026-05-06 17:17 | 12.98373 | 80.15923 | 44 ft | 0 kts | 335° |
| 2026-05-06 17:25 | 12.98371 | 80.15923 | 44 ft | 2 kts | 336° |
| 2026-05-06 17:25 | 12.98357 | 80.15929 | 44 ft | 2 kts | 335° |
| 2026-05-06 17:25 | 12.98344 | 80.15936 | 44 ft | 2 kts | 336° |
| 2026-05-06 17:25 | 12.98330 | 80.15942 | 45 ft | 2 kts | 335° |
| 2026-05-06 17:26 | 12.98321 | 80.15946 | 45 ft | 2 kts | 335° |
| 2026-05-06 17:26 | 12.98309 | 80.15956 | 45 ft | 2 kts | 303° |
| 2026-05-06 17:26 | 12.98303 | 80.15970 | 45 ft | 2 kts | 278° |
| 2026-05-06 17:26 | 12.98303 | 80.15984 | 45 ft | 1 kts | 253° |
| 2026-05-06 17:27 | 12.98306 | 80.15990 | 45 ft | 1 kts | 246° |
| 2026-05-06 17:27 | 12.98307 | 80.15993 | 45 ft | 0 kts | 248° |
| 2026-05-06 17:28 | 12.98306 | 80.15992 | 45 ft | 1 kts | 248° |
| 2026-05-06 17:28 | 12.98292 | 80.15954 | 45 ft | 10 kts | 248° |
| 2026-05-06 17:29 | 12.98302 | 80.15869 | 45 ft | 15 kts | 286° |
| 2026-05-06 17:29 | 12.98340 | 80.15730 | 44 ft | 25 kts | 285° |
| 2026-05-06 17:29 | 12.98394 | 80.15524 | 43 ft | 33 kts | 285° |
| 2026-05-06 17:29 | 12.98462 | 80.15427 | 42 ft | 1 kts | 50° |
| 2026-05-06 17:30 | 12.98463 | 80.15430 | 42 ft | 0 kts | 61° |
| 2026-05-06 17:30 | 12.98466 | 80.15434 | 42 ft | 5 kts | 61° |
| 2026-05-06 17:30 | 12.98625 | 80.15858 | 42 ft | 121 kts | 70° |
| 2026-05-06 17:30 | 12.99038 | 80.16981 | 246 ft | 203 kts | 71° |
| 2026-05-06 17:31 | 12.99328 | 80.18431 | 1406 ft | 224 kts | 92° |
| 2026-05-06 17:31 | 12.98952 | 80.20048 | 2456 ft | 255 kts | 113° |
| 2026-05-06 17:31 | 12.97845 | 80.21639 | 3090 ft | 300 kts | 136° |
| 2026-05-06 17:31 | 12.95959 | 80.22761 | 3847 ft | 336 kts | 159° |
| 2026-05-06 17:32 | 12.93575 | 80.23122 | 4624 ft | 365 kts | 180° |
| 2026-05-06 17:32 | 12.90991 | 80.22779 | 5451 ft | 388 kts | 187° |
| 2026-05-06 17:32 | 12.88256 | 80.22334 | 6263 ft | 407 kts | 188° |
| 2026-05-06 17:32 | 12.85453 | 80.21868 | 6736 ft | 394 kts | 188° |
| 2026-05-06 17:33 | 12.82921 | 80.21618 | 6997 ft | 344 kts | 176° |
| 2026-05-06 17:33 | 12.80775 | 80.22201 | 7166 ft | 305 kts | 152° |
| 2026-05-06 17:33 | 12.79023 | 80.23165 | 7359 ft | 272 kts | 147° |
| 2026-05-06 17:33 | 12.77860 | 80.24624 | 5716 ft | 308 kts | 110° |
| 2026-05-06 17:34 | 12.78131 | 80.23998 | 2633 ft | 301 kts | 295° |
| 2026-05-06 17:34 | 12.78687 | 80.22568 | 4897 ft | 193 kts | 276° |
| 2026-05-06 17:34 | 12.78972 | 80.21359 | 6411 ft | 174 kts | 296° |
| 2026-05-06 17:34 | 12.79420 | 80.20309 | 7563 ft | 173 kts | 295° |
| 2026-05-06 17:35 | 12.79927 | 80.19073 | 8158 ft | 209 kts | 294° |
| 2026-05-06 17:35 | 12.80518 | 80.17586 | 8720 ft | 232 kts | 293° |
| 2026-05-06 17:35 | 12.81115 | 80.16062 | 9233 ft | 233 kts | 293° |
| 2026-05-06 17:36 | 12.82320 | 80.12990 | 10187 ft | 233 kts | 293° |
| 2026-05-06 17:36 | 12.82864 | 80.11599 | 10638 ft | 234 kts | 293° |
| 2026-05-06 17:36 | 12.83495 | 80.09989 | 11160 ft | 235 kts | 293° |
| 2026-05-06 17:36 | 12.84012 | 80.08672 | 11585 ft | 236 kts | 293° |
| 2026-05-06 17:37 | 12.84586 | 80.07204 | 12056 ft | 237 kts | 293° |
| 2026-05-06 17:37 | 12.85196 | 80.05643 | 12554 ft | 238 kts | 293° |
| 2026-05-06 17:37 | 12.85819 | 80.04050 | 13059 ft | 240 kts | 293° |
| 2026-05-06 17:37 | 12.86454 | 80.02431 | 13602 ft | 264 kts | 293° |
| 2026-05-06 17:38 | 12.87169 | 80.00603 | 14212 ft | 286 kts | 293° |
| 2026-05-06 17:38 | 12.87904 | 79.98722 | 14756 ft | 290 kts | 293° |
| 2026-05-06 17:38 | 12.88617 | 79.96896 | 15247 ft | 291 kts | 294° |
| 2026-05-06 17:38 | 12.89391 | 79.94916 | 15760 ft | 292 kts | 294° |
| 2026-05-06 17:39 | 12.90157 | 79.92956 | 16265 ft | 295 kts | 294° |
| 2026-05-06 17:39 | 12.90919 | 79.91008 | 16763 ft | 297 kts | 294° |
| 2026-05-06 17:39 | 12.91684 | 79.89047 | 17260 ft | 300 kts | 294° |
| 2026-05-06 17:39 | 12.92457 | 79.87069 | 17757 ft | 302 kts | 294° |
| 2026-05-06 17:40 | 12.93230 | 79.85090 | 18250 ft | 305 kts | 294° |
| 2026-05-06 17:40 | 12.94016 | 79.83076 | 18748 ft | 307 kts | 294° |
| 2026-05-06 17:40 | 12.94811 | 79.81039 | 19252 ft | 310 kts | 294° |
| 2026-05-06 17:40 | 12.95614 | 79.78979 | 19741 ft | 314 kts | 294° |
| 2026-05-06 17:41 | 12.96429 | 79.76891 | 19839 ft | 319 kts | 294° |
| 2026-05-06 17:41 | 12.97245 | 79.74799 | 19854 ft | 316 kts | 294° |
| 2026-05-06 17:41 | 12.98058 | 79.72713 | 19853 ft | 315 kts | 294° |
| 2026-05-06 17:41 | 12.98854 | 79.70669 | 19855 ft | 314 kts | 294° |
| 2026-05-06 17:42 | 12.99667 | 79.68584 | 19857 ft | 315 kts | 294° |
| 2026-05-06 17:42 | 13.00472 | 79.66517 | 19857 ft | 316 kts | 294° |
| 2026-05-06 17:42 | 13.01275 | 79.64452 | 19857 ft | 316 kts | 294° |
| 2026-05-06 17:42 | 13.02082 | 79.62380 | 19857 ft | 316 kts | 294° |
| 2026-05-06 17:43 | 13.02870 | 79.60357 | 19857 ft | 316 kts | 294° |
| 2026-05-06 17:43 | 13.03697 | 79.58231 | 19857 ft | 317 kts | 294° |
| 2026-05-06 17:43 | 13.04497 | 79.56173 | 19857 ft | 317 kts | 294° |
| 2026-05-06 17:43 | 13.05302 | 79.54102 | 19857 ft | 318 kts | 294° |
| 2026-05-06 17:44 | 13.06117 | 79.52008 | 19857 ft | 318 kts | 294° |
| 2026-05-06 17:44 | 13.06901 | 79.49991 | 19857 ft | 318 kts | 294° |
| 2026-05-06 17:44 | 13.07720 | 79.47881 | 19857 ft | 318 kts | 294° |
| 2026-05-06 17:44 | 13.08533 | 79.45789 | 19857 ft | 319 kts | 294° |
| 2026-05-06 17:45 | 13.09353 | 79.43678 | 19857 ft | 319 kts | 294° |
| 2026-05-06 17:45 | 13.10175 | 79.41560 | 19858 ft | 320 kts | 294° |
| 2026-05-06 17:45 | 13.11000 | 79.39436 | 19860 ft | 320 kts | 294° |
| 2026-05-06 17:45 | 13.11815 | 79.37334 | 19860 ft | 320 kts | 294° |
| 2026-05-06 17:46 | 13.12628 | 79.35237 | 19860 ft | 321 kts | 294° |
| 2026-05-06 17:46 | 13.13436 | 79.33157 | 19858 ft | 320 kts | 294° |
| 2026-05-06 17:46 | 13.14246 | 79.31064 | 19858 ft | 320 kts | 294° |
| 2026-05-06 17:46 | 13.15071 | 79.28937 | 19858 ft | 320 kts | 294° |
| 2026-05-06 17:47 | 13.15877 | 79.26856 | 19858 ft | 320 kts | 294° |
| 2026-05-06 17:47 | 13.16693 | 79.24751 | 19858 ft | 320 kts | 294° |
| 2026-05-06 17:47 | 13.17514 | 79.22629 | 19858 ft | 320 kts | 294° |
| 2026-05-06 17:47 | 13.18332 | 79.20517 | 19858 ft | 320 kts | 294° |
| 2026-05-06 17:48 | 13.19155 | 79.18391 | 19858 ft | 320 kts | 294° |
| 2026-05-06 17:48 | 13.19959 | 79.16312 | 19858 ft | 320 kts | 294° |
| 2026-05-06 17:48 | 13.20750 | 79.14269 | 19858 ft | 320 kts | 294° |
| 2026-05-06 17:48 | 13.21572 | 79.12143 | 19858 ft | 319 kts | 294° |
| 2026-05-06 17:49 | 13.22376 | 79.10064 | 19858 ft | 319 kts | 294° |
| 2026-05-06 17:49 | 13.23173 | 79.08000 | 19858 ft | 319 kts | 294° |
| 2026-05-06 17:49 | 13.23977 | 79.05922 | 19858 ft | 319 kts | 294° |
| 2026-05-06 17:49 | 13.24792 | 79.03812 | 19858 ft | 318 kts | 294° |
| 2026-05-06 17:50 | 13.25602 | 79.01714 | 19858 ft | 318 kts | 294° |
| 2026-05-06 17:50 | 13.26407 | 78.99628 | 19858 ft | 318 kts | 294° |
| 2026-05-06 17:50 | 13.27166 | 78.97662 | 19858 ft | 318 kts | 294° |
| 2026-05-06 17:50 | 13.27997 | 78.95509 | 19858 ft | 317 kts | 294° |
| 2026-05-06 17:51 | 13.28787 | 78.93458 | 19869 ft | 317 kts | 293° |
| 2026-05-06 17:51 | 13.29202 | 78.91253 | 19883 ft | 320 kts | 272° |
| 2026-05-06 17:51 | 13.29170 | 78.89101 | 19902 ft | 323 kts | 269° |
| 2026-05-06 17:51 | 13.29061 | 78.86745 | 19914 ft | 322 kts | 268° |
| 2026-05-06 17:52 | 13.28929 | 78.84485 | 19920 ft | 322 kts | 268° |
| 2026-05-06 17:52 | 13.28784 | 78.82220 | 19932 ft | 322 kts | 268° |
| 2026-05-06 17:52 | 13.28638 | 78.80001 | 19944 ft | 322 kts | 268° |
| 2026-05-06 17:52 | 13.28486 | 78.77744 | 19955 ft | 322 kts | 268° |
| 2026-05-06 17:53 | 13.28337 | 78.75532 | 19967 ft | 322 kts | 268° |
| 2026-05-06 17:53 | 13.28182 | 78.73253 | 19980 ft | 322 kts | 268° |
| 2026-05-06 17:53 | 13.28030 | 78.71006 | 19991 ft | 322 kts | 268° |
| 2026-05-06 17:53 | 13.27874 | 78.68713 | 19993 ft | 322 kts | 268° |
| 2026-05-06 17:54 | 13.27719 | 78.66441 | 19994 ft | 322 kts | 268° |
| 2026-05-06 17:54 | 13.27568 | 78.64243 | 19994 ft | 322 kts | 268° |
| 2026-05-06 17:54 | 13.27414 | 78.61979 | 19994 ft | 322 kts | 268° |
| 2026-05-06 17:54 | 13.27258 | 78.59705 | 19994 ft | 322 kts | 268° |
| 2026-05-06 17:55 | 13.27102 | 78.57435 | 19994 ft | 322 kts | 268° |
| 2026-05-06 17:55 | 13.26949 | 78.55201 | 19994 ft | 322 kts | 268° |
| 2026-05-06 17:55 | 13.26792 | 78.52911 | 19994 ft | 322 kts | 268° |
| 2026-05-06 17:55 | 13.26634 | 78.50626 | 19994 ft | 322 kts | 268° |
| 2026-05-06 17:56 | 13.26478 | 78.48366 | 19994 ft | 322 kts | 268° |
| 2026-05-06 17:56 | 13.26322 | 78.46092 | 19994 ft | 322 kts | 268° |
| 2026-05-06 17:56 | 13.26169 | 78.43888 | 19817 ft | 327 kts | 268° |
| 2026-05-06 17:56 | 13.26005 | 78.41505 | 19235 ft | 331 kts | 268° |
| 2026-05-06 17:57 | 13.25846 | 78.39222 | 18757 ft | 331 kts | 268° |
| 2026-05-06 17:57 | 13.25689 | 78.36962 | 18283 ft | 331 kts | 268° |
| 2026-05-06 17:57 | 13.25551 | 78.34967 | 17864 ft | 330 kts | 267° |
| 2026-05-06 17:57 | 13.25428 | 78.33209 | 17492 ft | 330 kts | 267° |
| 2026-05-06 17:58 | 13.25289 | 78.31209 | 17068 ft | 330 kts | 267° |
| 2026-05-06 17:58 | 13.25132 | 78.28956 | 16590 ft | 329 kts | 267° |
| 2026-05-06 17:58 | 13.24964 | 78.26552 | 16079 ft | 328 kts | 267° |
| 2026-05-06 17:58 | 13.24802 | 78.24223 | 15582 ft | 327 kts | 267° |
| 2026-05-06 17:59 | 13.24641 | 78.21928 | 15091 ft | 327 kts | 267° |
| 2026-05-06 17:59 | 13.24551 | 78.20647 | 14817 ft | 326 kts | 267° |
| 2026-05-06 17:59 | 13.24400 | 78.18496 | 14355 ft | 325 kts | 267° |
| 2026-05-06 17:59 | 13.24232 | 78.16090 | 13836 ft | 324 kts | 267° |
| 2026-05-06 18:00 | 13.24070 | 78.13789 | 13349 ft | 323 kts | 267° |
| 2026-05-06 18:00 | 13.23911 | 78.11526 | 12875 ft | 321 kts | 267° |
| 2026-05-06 18:00 | 13.23751 | 78.09260 | 12398 ft | 319 kts | 267° |
| 2026-05-06 18:00 | 13.23591 | 78.06988 | 11914 ft | 318 kts | 267° |
| 2026-05-06 18:01 | 13.23432 | 78.04739 | 11432 ft | 317 kts | 267° |
| 2026-05-06 18:01 | 13.23272 | 78.02478 | 10936 ft | 316 kts | 267° |
| 2026-05-06 18:01 | 13.23116 | 78.00268 | 10454 ft | 315 kts | 267° |
| 2026-05-06 18:01 | 13.22956 | 77.98016 | 10045 ft | 311 kts | 267° |
| 2026-05-06 18:02 | 13.22802 | 77.95860 | 9993 ft | 296 kts | 267° |
| 2026-05-06 18:02 | 13.22655 | 77.93798 | 9980 ft | 280 kts | 267° |
| 2026-05-06 18:02 | 13.22518 | 77.91870 | 9983 ft | 271 kts | 267° |
| 2026-05-06 18:02 | 13.22380 | 77.89923 | 9994 ft | 273 kts | 267° |
| 2026-05-06 18:03 | 13.22240 | 77.87954 | 9770 ft | 284 kts | 267° |
| 2026-05-06 18:03 | 13.22096 | 77.85930 | 9185 ft | 291 kts | 267° |
| 2026-05-06 18:03 | 13.21947 | 77.83841 | 8697 ft | 294 kts | 266° |
| 2026-05-06 18:03 | 13.21798 | 77.81763 | 8210 ft | 296 kts | 266° |
| 2026-05-06 18:04 | 13.21647 | 77.79653 | 7625 ft | 302 kts | 266° |
| 2026-05-06 18:04 | 13.21490 | 77.77462 | 6901 ft | 311 kts | 266° |
| 2026-05-06 18:04 | 13.21331 | 77.75251 | 6149 ft | 319 kts | 266° |
| 2026-05-06 18:04 | 13.21166 | 77.72955 | 5336 ft | 326 kts | 266° |
| 2026-05-06 18:05 | 13.20997 | 77.70610 | 4533 ft | 332 kts | 265° |
| 2026-05-06 18:05 | 13.20427 | 77.68359 | 3641 ft | 337 kts | 244° |
| 2026-05-06 18:05 | 13.19654 | 77.66138 | 3311 ft | 315 kts | 261° |
| 2026-05-06 18:05 | 13.19411 | 77.64082 | 3921 ft | 274 kts | 264° |
| 2026-05-06 18:06 | 13.19230 | 77.62128 | 3589 ft | 272 kts | 264° |
| 2026-05-06 18:06 | 13.19067 | 77.60267 | 3649 ft | 255 kts | 265° |
| 2026-05-06 18:06 | 13.18941 | 77.58483 | 3769 ft | 245 kts | 269° |
| 2026-05-06 18:06 | 13.19889 | 77.57230 | 3936 ft | 253 kts | 356° |
| 2026-05-06 18:07 | 13.21608 | 77.57292 | 4395 ft | 248 kts | 12° |
| 2026-05-06 18:07 | 13.23133 | 77.58039 | 4876 ft | 247 kts | 42° |
| 2026-05-06 18:07 | 13.24152 | 77.59477 | 4968 ft | 255 kts | 67° |
| 2026-05-06 18:07 | 13.24425 | 77.61250 | 4619 ft | 254 kts | 96° |
| 2026-05-06 18:08 | 13.23836 | 77.62929 | 4282 ft | 254 kts | 124° |
| 2026-05-06 18:08 | 13.22620 | 77.64245 | 3963 ft | 253 kts | 135° |
| 2026-05-06 18:08 | 13.21345 | 77.65494 | 3645 ft | 253 kts | 135° |
| 2026-05-06 18:08 | 13.20167 | 77.66806 | 3381 ft | 248 kts | 120° |
| 2026-05-06 18:09 | 13.19732 | 77.68471 | 3259 ft | 238 kts | 87° |